Time;durP1;ratioP1;P1;durP2;ratioP2;P2;SDS_P1;SDS_P2;PMS_P1;PMS_P2;Temp;Humidity;BMP_temperature;BMP_pressure;BME280_temperature;BME280_humidity;BME280_pressure;Samples;Min_cycle;Max_cycle;Signal;HPM_P1;HPM_P2
2023/07/29 00:02:01;;;;;;;2.60;2.40;;;18.70;99.90;;;;;;5087109;28;20647;-69
2023/07/29 00:04:28;;;;;;;2.53;2.33;;;18.70;99.90;;;;;;5101557;28;20220;-70
2023/07/29 00:06:55;;;;;;;2.75;2.55;;;18.70;99.90;;;;;;5103793;28;20251;-70
2023/07/29 00:09:22;;;;;;;2.47;2.28;;;18.70;99.90;;;;;;5102082;28;20625;-70
2023/07/29 00:11:49;;;;;;;2.88;2.58;;;18.70;99.90;;;;;;5102128;28;20192;-70
2023/07/29 00:14:17;;;;;;;2.97;2.67;;;18.70;99.90;;;;;;5097975;28;20196;-70
2023/07/29 00:16:44;;;;;;;3.33;3.00;;;18.70;99.90;;;;;;5103613;28;20219;-70
2023/07/29 00:19:12;;;;;;;3.55;3.25;;;18.70;99.90;;;;;;5100203;28;20211;-70
2023/07/29 00:21:40;;;;;;;3.45;3.15;;;18.70;99.90;;;;;;5084804;28;20203;-69
2023/07/29 00:24:08;;;;;;;4.05;2.78;;;18.60;99.90;;;;;;5087242;28;20271;-70
2023/07/29 00:26:35;;;;;;;3.42;3.13;;;18.60;99.90;;;;;;5110112;28;20666;-70
2023/07/29 00:29:02;;;;;;;2.80;2.60;;;18.60;99.90;;;;;;5111171;28;20631;-70
2023/07/29 00:31:29;;;;;;;2.80;2.60;;;18.60;99.90;;;;;;5111163;28;20191;-69
2023/07/29 00:33:58;;;;;;;2.70;2.50;;;18.50;99.90;;;;;;5109458;28;20279;-69
2023/07/29 00:36:26;;;;;;;2.53;2.33;;;18.60;99.90;;;;;;5091150;28;20658;-70
2023/07/29 00:38:56;;;;;;;2.33;2.13;;;18.50;99.90;;;;;;5078592;28;20228;-69
2023/07/29 00:41:24;;;;;;;2.63;2.30;;;18.50;99.90;;;;;;5095433;28;20290;-70
2023/07/29 00:43:51;;;;;;;2.78;2.58;;;18.50;99.90;;;;;;5084392;28;20205;-70
2023/07/29 00:46:19;;;;;;;2.75;2.55;;;18.50;99.90;;;;;;5076788;28;20621;-70
2023/07/29 00:48:46;;;;;;;2.50;2.30;;;18.50;99.90;;;;;;5105149;28;20206;-69
2023/07/29 00:51:13;;;;;;;2.42;2.22;;;18.60;99.90;;;;;;5105463;28;20204;-69
2023/07/29 00:53:42;;;;;;;2.50;2.30;;;18.60;99.90;;;;;;5082742;28;20208;-69
2023/07/29 00:56:09;;;;;;;2.00;1.90;;;18.60;99.90;;;;;;5079517;28;20238;-69
2023/07/29 00:58:36;;;;;;;3.13;2.92;;;18.60;99.90;;;;;;5088283;28;20222;-68
2023/07/29 01:01:03;;;;;;;2.80;2.60;;;18.60;99.90;;;;;;5101909;28;20257;-69
2023/07/29 01:03:30;;;;;;;2.47;2.28;;;18.60;99.90;;;;;;5081478;28;20208;-69
2023/07/29 01:06:08;;;;;;;2.78;2.58;;;18.60;99.90;;;;;;5087378;28;20225;-69
2023/07/29 01:08:46;;;;;;;2.45;2.00;;;18.60;99.90;;;;;;5106306;28;20191;-68
2023/07/29 01:11:26;;;;;;;2.17;2.08;;;18.60;99.90;;;;;;5103561;28;20196;-69
2023/07/29 01:14:00;;;;;;;2.40;2.20;;;18.60;99.90;;;;;;5085093;28;20204;-69
2023/07/29 01:16:35;;;;;;;2.17;1.98;;;18.60;99.90;;;;;;5084731;28;20256;-69
2023/07/29 01:19:06;;;;;;;2.38;2.25;;;18.60;99.90;;;;;;5105344;28;20671;-69
2023/07/29 01:21:36;;;;;;;2.97;2.22;;;18.60;99.90;;;;;;5104198;28;20253;-69
2023/07/29 01:24:04;;;;;;;2.08;1.90;;;18.50;99.90;;;;;;5107117;28;20196;-69
2023/07/29 01:26:32;;;;;;;2.50;2.30;;;18.50;99.90;;;;;;5098305;28;20529;-69
2023/07/29 01:29:00;;;;;;;2.67;2.47;;;18.50;99.90;;;;;;5089056;28;20207;-69
2023/07/29 01:31:33;;;;;;;2.50;2.30;;;18.50;99.90;;;;;;5085301;28;20682;-69
2023/07/29 01:34:18;;;;;;;3.50;3.20;;;18.50;99.90;;;;;;5101679;28;20203;-69
2023/07/29 01:36:47;;;;;;;3.72;3.03;;;18.50;99.90;;;;;;5091074;28;20215;-68
2023/07/29 01:39:17;;;;;;;2.80;2.55;;;18.40;99.90;;;;;;5091439;28;20211;-68
2023/07/29 01:41:46;;;;;;;3.00;2.63;;;18.40;99.90;;;;;;5105802;28;20189;-68
2023/07/29 01:44:14;;;;;;;2.40;2.20;;;18.30;99.90;;;;;;5109864;28;20206;-68
2023/07/29 01:46:41;;;;;;;4.03;2.38;;;18.30;99.90;;;;;;5103794;28;20277;-68
2023/07/29 01:49:08;;;;;;;2.17;2.08;;;18.30;99.90;;;;;;5100094;28;21059;-69
2023/07/29 01:51:36;;;;;;;2.17;1.98;;;18.30;99.90;;;;;;5103630;28;20196;-69
2023/07/29 01:54:03;;;;;;;1.80;1.70;;;18.30;99.90;;;;;;5097736;28;20249;-69
2023/07/29 01:56:31;;;;;;;2.15;2.05;;;18.20;99.90;;;;;;5076583;28;20219;-69
2023/07/29 01:58:58;;;;;;;2.00;1.90;;;18.20;99.90;;;;;;5081502;28;20196;-69
2023/07/29 02:01:25;;;;;;;3.50;2.47;;;18.20;99.90;;;;;;5074705;28;20269;-68
2023/07/29 02:03:55;;;;;;;2.50;2.30;;;18.10;99.90;;;;;;5080739;28;20192;-68
2023/07/29 02:06:22;;;;;;;2.28;2.10;;;18.20;99.90;;;;;;5097165;28;20235;-69
2023/07/29 02:08:49;;;;;;;2.20;2.08;;;18.10;99.90;;;;;;5094375;28;20282;-69
2023/07/29 02:11:17;;;;;;;2.05;1.85;;;18.10;99.90;;;;;;5085476;28;20200;-68
2023/07/29 02:13:45;;;;;;;2.63;2.47;;;18.10;99.90;;;;;;5076005;28;20203;-69
2023/07/29 02:16:12;;;;;;;2.40;2.20;;;18.00;99.90;;;;;;5096745;28;20747;-69
2023/07/29 02:18:39;;;;;;;2.50;2.30;;;18.10;99.90;;;;;;5078935;28;20207;-69
2023/07/29 02:21:06;;;;;;;2.47;2.28;;;18.10;99.90;;;;;;5090430;28;20200;-69
2023/07/29 02:23:33;;;;;;;2.70;2.50;;;18.00;99.90;;;;;;5093295;28;20292;-69
2023/07/29 02:26:00;;;;;;;4.30;2.15;;;18.00;99.90;;;;;;5099141;28;20264;-69
2023/07/29 02:28:27;;;;;;;2.78;2.53;;;18.00;99.90;;;;;;5112590;27;20207;-69
2023/07/29 02:31:13;;;;;;;3.90;3.22;;;18.00;99.90;;;;;;5094061;28;20547;-69
2023/07/29 02:33:40;;;;;;;2.60;2.40;;;18.00;99.90;;;;;;5112093;28;20275;-69
2023/07/29 02:36:07;;;;;;;2.80;2.60;;;17.90;99.90;;;;;;5096494;28;20288;-69
2023/07/29 02:38:34;;;;;;;2.00;1.90;;;17.90;99.90;;;;;;5099992;28;20188;-69
2023/07/29 02:41:01;;;;;;;3.10;2.80;;;17.90;99.90;;;;;;5094297;28;20268;-69
2023/07/29 02:43:29;;;;;;;2.40;2.25;;;17.90;99.90;;;;;;5082487;28;20213;-69
2023/07/29 02:45:56;;;;;;;2.60;2.40;;;17.90;99.90;;;;;;5104314;28;20188;-68
2023/07/29 02:48:25;;;;;;;2.28;2.17;;;17.90;99.90;;;;;;5097314;28;20306;-69
2023/07/29 02:50:52;;;;;;;2.10;2.00;;;17.90;99.90;;;;;;5111906;28;20549;-69
2023/07/29 02:53:20;;;;;;;2.13;2.03;;;17.90;99.90;;;;;;5106749;28;20203;-69
2023/07/29 02:55:47;;;;;;;2.10;2.00;;;17.90;99.90;;;;;;5084530;28;20249;-69
2023/07/29 02:58:14;;;;;;;2.20;2.10;;;17.90;99.90;;;;;;5105240;28;20328;-69
2023/07/29 03:00:41;;;;;;;2.10;2.00;;;17.90;99.90;;;;;;5085280;28;20207;-69
2023/07/29 03:03:09;;;;;;;2.63;2.20;;;17.80;99.90;;;;;;5090181;28;20700;-69
2023/07/29 03:05:38;;;;;;;2.03;1.92;;;17.80;99.90;;;;;;5105629;28;20610;-68
2023/07/29 03:08:05;;;;;;;1.95;1.85;;;17.80;99.90;;;;;;5085743;28;20286;-69
2023/07/29 03:10:32;;;;;;;1.98;1.88;;;17.80;99.90;;;;;;5099449;28;20204;-69
2023/07/29 03:12:59;;;;;;;1.98;1.88;;;17.80;99.90;;;;;;5099236;28;20200;-69
2023/07/29 03:15:27;;;;;;;1.90;1.80;;;17.80;99.90;;;;;;5083372;28;20674;-69
2023/07/29 03:17:54;;;;;;;1.85;1.75;;;17.80;99.90;;;;;;5098150;28;20291;-69
2023/07/29 03:20:21;;;;;;;2.15;2.05;;;17.80;99.90;;;;;;5085256;28;20236;-69
2023/07/29 03:22:50;;;;;;;2.50;2.30;;;17.70;99.90;;;;;;5108585;28;20242;-69
2023/07/29 03:25:17;;;;;;;2.13;2.00;;;17.70;99.90;;;;;;5101084;28;20208;-69
2023/07/29 03:27:44;;;;;;;1.98;1.88;;;17.70;99.90;;;;;;5088433;28;20228;-69
2023/07/29 03:30:12;;;;;;;1.67;1.58;;;17.70;99.90;;;;;;5089786;28;20230;-69
2023/07/29 03:32:44;;;;;;;1.98;1.88;;;17.70;99.90;;;;;;5103203;28;20199;-69
2023/07/29 03:35:13;;;;;;;2.85;2.53;;;17.70;99.90;;;;;;5076960;28;20214;-69
2023/07/29 03:37:40;;;;;;;2.42;2.33;;;17.70;99.90;;;;;;5107121;28;20216;-69
2023/07/29 03:40:10;;;;;;;2.38;2.17;;;17.70;99.90;;;;;;5084760;28;20500;-69
2023/07/29 03:42:37;;;;;;;2.20;2.00;;;17.70;99.90;;;;;;5081400;28;20201;-69
2023/07/29 03:45:05;;;;;;;2.40;2.30;;;17.70;99.90;;;;;;5084794;28;20240;-69
2023/07/29 03:47:32;;;;;;;2.38;1.88;;;17.70;99.90;;;;;;5097356;28;20609;-69
2023/07/29 03:50:00;;;;;;;3.22;2.58;;;17.70;99.90;;;;;;5087648;28;20291;-69
2023/07/29 03:52:27;;;;;;;1.92;1.83;;;17.80;99.90;;;;;;5084638;28;20261;-69
2023/07/29 03:54:54;;;;;;;2.03;1.92;;;17.70;99.90;;;;;;5100137;28;20199;-69
2023/07/29 03:57:23;;;;;;;1.83;1.73;;;17.80;99.90;;;;;;5084135;28;20259;-70
2023/07/29 03:59:50;;;;;;;2.22;2.05;;;17.80;99.90;;;;;;5088623;28;20271;-69
2023/07/29 04:02:17;;;;;;;3.65;1.80;;;17.80;99.90;;;;;;5084950;28;20209;-70
2023/07/29 04:04:47;;;;;;;2.15;2.05;;;17.80;99.90;;;;;;5083353;28;20211;-69
2023/07/29 04:07:15;;;;;;;2.17;2.08;;;17.80;99.90;;;;;;5088642;28;20738;-70
2023/07/29 04:09:43;;;;;;;2.30;2.13;;;17.80;99.90;;;;;;5085592;28;20609;-69
2023/07/29 04:12:10;;;;;;;2.13;2.00;;;17.80;99.90;;;;;;5085338;28;20191;-70
2023/07/29 04:14:39;;;;;;;1.63;1.52;;;17.80;99.90;;;;;;5103277;28;20198;-70
2023/07/29 04:17:08;;;;;;;1.60;1.50;;;17.90;99.90;;;;;;5104212;28;20547;-70
2023/07/29 04:19:35;;;;;;;2.13;2.00;;;17.90;99.90;;;;;;5105330;28;20666;-70
2023/07/29 04:22:02;;;;;;;1.92;1.80;;;17.90;99.90;;;;;;5085522;28;20393;-70
2023/07/29 04:24:29;;;;;;;1.50;1.40;;;17.90;99.90;;;;;;5103382;28;20691;-70
2023/07/29 04:26:56;;;;;;;2.25;2.05;;;17.90;99.90;;;;;;5074144;28;20257;-70
2023/07/29 04:29:23;;;;;;;1.65;1.55;;;17.90;99.90;;;;;;5108589;28;20196;-70
2023/07/29 04:31:52;;;;;;;1.50;1.40;;;17.90;99.90;;;;;;5085416;28;20196;-70
2023/07/29 04:34:19;;;;;;;2.00;1.88;;;17.90;99.90;;;;;;5094641;28;20184;-70
2023/07/29 04:36:46;;;;;;;1.73;1.63;;;17.90;99.90;;;;;;5097591;28;20265;-70
2023/07/29 04:39:13;;;;;;;1.52;1.42;;;17.90;99.90;;;;;;5080400;28;20336;-70
2023/07/29 04:41:40;;;;;;;1.20;1.20;;;18.00;99.90;;;;;;5091405;28;20303;-70
2023/07/29 04:44:07;;;;;;;2.08;1.88;;;17.90;99.90;;;;;;5109557;28;20203;-70
2023/07/29 04:46:34;;;;;;;2.50;2.15;;;18.00;99.90;;;;;;5092969;28;20634;-70
2023/07/29 04:49:03;;;;;;;2.28;2.05;;;18.00;99.90;;;;;;5096274;28;20725;-70
2023/07/29 04:51:31;;;;;;;1.88;1.77;;;18.00;99.90;;;;;;5105819;28;20215;-70
2023/07/29 04:53:59;;;;;;;2.00;1.90;;;18.00;99.90;;;;;;5079766;28;20200;-70
2023/07/29 04:56:26;;;;;;;2.10;2.00;;;18.10;99.90;;;;;;5088536;28;20200;-70
2023/07/29 04:58:54;;;;;;;2.15;2.05;;;18.10;99.90;;;;;;5091167;28;20298;-71
2023/07/29 05:01:21;;;;;;;1.70;1.60;;;18.20;99.90;;;;;;5083301;28;20212;-71
2023/07/29 05:03:48;;;;;;;1.85;1.75;;;18.20;99.90;;;;;;5096415;28;20224;-70
2023/07/29 05:06:16;;;;;;;1.90;1.80;;;18.30;99.90;;;;;;5087281;28;20231;-71
2023/07/29 05:08:43;;;;;;;2.05;1.95;;;18.40;99.90;;;;;;5093032;28;20238;-71
2023/07/29 05:11:11;;;;;;;1.30;1.30;;;18.40;99.90;;;;;;5086135;28;20211;-70
2023/07/29 05:13:38;;;;;;;1.85;1.75;;;18.50;99.90;;;;;;5093168;28;20246;-70
2023/07/29 05:16:06;;;;;;;2.20;2.10;;;18.60;99.90;;;;;;5083286;28;20211;-71
2023/07/29 05:18:34;;;;;;;1.50;1.50;;;18.60;99.90;;;;;;5078623;28;20216;-70
2023/07/29 05:21:01;;;;;;;2.10;2.00;;;18.60;99.90;;;;;;5087832;28;20210;-70
2023/07/29 05:23:30;;;;;;;1.38;1.30;;;18.70;99.90;;;;;;5085062;28;20192;-71
2023/07/29 05:25:57;;;;;;;1.40;1.40;;;18.70;99.90;;;;;;5086349;28;20228;-71
2023/07/29 05:28:24;;;;;;;1.50;1.40;;;18.80;99.90;;;;;;5088892;28;20216;-71
2023/07/29 05:30:51;;;;;;;1.58;1.48;;;18.80;99.90;;;;;;5091695;28;20248;-71
2023/07/29 05:33:18;;;;;;;1.40;1.40;;;18.80;99.90;;;;;;5089779;28;20203;-71
2023/07/29 05:35:47;;;;;;;1.73;1.60;;;18.90;99.90;;;;;;5108226;28;20202;-70
2023/07/29 05:38:14;;;;;;;3.08;1.20;;;18.90;99.90;;;;;;5091157;28;20219;-70
2023/07/29 05:40:43;;;;;;;1.45;1.35;;;18.90;99.90;;;;;;5089908;28;20370;-70
2023/07/29 05:43:10;;;;;;;0.80;0.80;;;19.00;99.90;;;;;;5082004;28;20188;-71
2023/07/29 05:45:37;;;;;;;0.90;0.90;;;19.00;99.90;;;;;;5106538;28;20874;-70
2023/07/29 05:48:05;;;;;;;1.13;1.13;;;19.10;99.90;;;;;;5086099;28;20193;-70
2023/07/29 05:50:32;;;;;;;0.95;0.95;;;19.10;99.90;;;;;;5094715;28;20200;-70
2023/07/29 05:52:59;;;;;;;1.25;1.25;;;19.20;99.90;;;;;;5105511;28;20245;-71
2023/07/29 05:55:27;;;;;;;1.70;1.60;;;19.20;99.90;;;;;;5089456;28;20264;-69
2023/07/29 05:57:56;;;;;;;1.40;1.40;;;19.20;99.90;;;;;;5080046;28;20212;-70
2023/07/29 06:00:23;;;;;;;1.77;1.67;;;19.30;99.90;;;;;;5091863;28;20195;-70
2023/07/29 06:02:50;;;;;;;1.20;1.20;;;19.30;99.90;;;;;;5097718;28;20340;-70
2023/07/29 06:05:21;;;;;;;2.05;1.90;;;19.30;99.90;;;;;;5084382;28;20581;-70
2023/07/29 06:07:48;;;;;;;1.45;1.45;;;19.40;99.90;;;;;;5077121;28;20709;-69
2023/07/29 06:10:18;;;;;;;1.90;1.80;;;19.40;99.90;;;;;;5100594;28;20252;-70
2023/07/29 06:12:45;;;;;;;1.90;1.80;;;19.50;99.90;;;;;;5095194;28;20265;-70
2023/07/29 06:15:14;;;;;;;1.85;1.75;;;19.50;99.90;;;;;;5081567;28;20199;-69
2023/07/29 06:17:42;;;;;;;1.83;1.73;;;19.60;99.90;;;;;;5083704;28;20631;-69
2023/07/29 06:20:10;;;;;;;2.28;2.08;;;19.60;99.90;;;;;;5087104;28;20285;-69
2023/07/29 06:22:37;;;;;;;2.20;2.10;;;19.60;99.90;;;;;;5099698;28;20231;-70
2023/07/29 06:25:05;;;;;;;2.65;2.45;;;19.70;99.90;;;;;;5081179;28;20196;-69
2023/07/29 06:27:32;;;;;;;2.53;2.42;;;19.70;99.90;;;;;;5106254;28;20656;-70
2023/07/29 06:29:59;;;;;;;2.30;2.20;;;19.80;99.90;;;;;;5104311;28;20194;-70
2023/07/29 06:32:28;;;;;;;2.17;2.08;;;19.80;99.90;;;;;;5100622;28;20655;-70
2023/07/29 06:34:55;;;;;;;2.72;2.42;;;19.80;99.90;;;;;;5083437;28;20187;-69
2023/07/29 06:37:22;;;;;;;2.08;1.98;;;19.90;99.90;;;;;;5087909;28;20306;-70
2023/07/29 06:39:49;;;;;;;1.67;1.58;;;19.90;99.90;;;;;;5075415;28;20200;-70
2023/07/29 06:42:16;;;;;;;1.48;1.40;;;19.90;99.90;;;;;;5102710;28;20200;-69
2023/07/29 06:44:45;;;;;;;1.00;1.00;;;20.00;99.90;;;;;;5104947;28;20654;-70
2023/07/29 06:47:12;;;;;;;1.40;1.30;;;20.00;99.90;;;;;;5104361;28;20703;-70
2023/07/29 06:49:41;;;;;;;1.30;1.30;;;20.10;99.90;;;;;;5104141;28;20317;-69
2023/07/29 06:52:10;;;;;;;1.30;1.30;;;20.10;99.90;;;;;;5103756;28;20184;-70
2023/07/29 06:54:37;;;;;;;2.60;1.80;;;20.20;99.90;;;;;;5100776;28;20186;-69
2023/07/29 06:57:05;;;;;;;2.20;2.00;;;20.20;99.90;;;;;;5088835;28;20204;-69
2023/07/29 06:59:32;;;;;;;1.67;1.58;;;20.30;99.90;;;;;;5090211;28;20196;-70
2023/07/29 07:02:00;;;;;;;1.50;1.40;;;20.30;99.90;;;;;;5108372;28;20253;-69
2023/07/29 07:04:27;;;;;;;1.48;1.38;;;20.40;99.90;;;;;;5107941;28;20674;-70
2023/07/29 07:06:55;;;;;;;1.67;1.58;;;20.50;99.90;;;;;;5108023;28;20901;-69
2023/07/29 07:09:22;;;;;;;1.10;1.10;;;20.50;99.90;;;;;;5104673;28;20192;-69
2023/07/29 07:11:49;;;;;;;1.48;1.38;;;20.60;99.90;;;;;;5106485;28;20508;-69
2023/07/29 07:14:16;;;;;;;0.90;0.90;;;20.70;99.90;;;;;;5104058;28;20244;-70
2023/07/29 07:16:44;;;;;;;1.45;1.35;;;20.70;99.90;;;;;;5110492;28;20291;-69
2023/07/29 07:19:11;;;;;;;2.65;1.80;;;20.80;99.90;;;;;;5086188;28;20216;-69
2023/07/29 07:21:38;;;;;;;1.80;1.70;;;20.80;99.90;;;;;;5087598;28;20593;-69
2023/07/29 07:24:07;;;;;;;1.25;1.25;;;20.90;99.90;;;;;;5104689;27;20265;-69
2023/07/29 07:26:34;;;;;;;1.83;1.73;;;21.00;99.90;;;;;;5110805;28;20199;-68
2023/07/29 07:29:01;;;;;;;2.08;1.95;;;21.00;99.90;;;;;;5108631;28;20189;-69
2023/07/29 07:31:35;;;;;;;1.88;1.77;;;21.20;99.90;;;;;;5111400;28;20646;-69
2023/07/29 07:34:03;;;;;;;1.88;1.77;;;21.20;99.90;;;;;;5110346;28;20191;-69
2023/07/29 07:36:31;;;;;;;1.30;1.30;;;21.30;99.90;;;;;;5111835;28;20237;-69
2023/07/29 07:38:58;;;;;;;2.35;2.15;;;21.40;99.90;;;;;;5110378;28;20239;-69
2023/07/29 07:41:26;;;;;;;2.15;2.05;;;21.40;99.90;;;;;;5112280;28;20228;-70
2023/07/29 07:43:53;;;;;;;2.00;1.90;;;21.50;99.90;;;;;;5078349;28;20254;-70
2023/07/29 07:46:20;;;;;;;3.38;2.03;;;21.50;99.90;;;;;;5094767;28;20215;-69
2023/07/29 07:48:47;;;;;;;2.03;1.92;;;21.60;99.90;;;;;;5104314;28;20199;-69
2023/07/29 07:51:15;;;;;;;2.92;2.10;;;21.60;99.90;;;;;;5110232;28;20200;-69
2023/07/29 07:53:42;;;;;;;1.85;1.75;;;21.70;99.90;;;;;;5105537;28;20337;-69
2023/07/29 07:56:09;;;;;;;1.63;1.52;;;21.70;99.90;;;;;;5096678;28;20250;-69
2023/07/29 07:58:37;;;;;;;2.20;2.00;;;21.80;99.90;;;;;;5104435;28;20348;-69
2023/07/29 08:01:05;;;;;;;1.80;1.70;;;21.90;99.90;;;;;;5105642;28;20245;-69
2023/07/29 08:03:32;;;;;;;1.70;1.60;;;22.00;99.90;;;;;;5107531;28;20203;-69
2023/07/29 08:05:59;;;;;;;1.30;1.30;;;22.00;99.90;;;;;;5098685;28;20671;-68
2023/07/29 08:08:27;;;;;;;4.22;2.13;;;22.10;99.90;;;;;;5097347;28;20215;-68
2023/07/29 08:10:54;;;;;;;4.72;2.22;;;22.10;99.90;;;;;;5104277;28;20195;-68
2023/07/29 08:13:22;;;;;;;2.20;2.00;;;22.20;99.90;;;;;;5085402;28;20208;-68
2023/07/29 08:15:51;;;;;;;1.60;1.50;;;22.30;99.90;;;;;;5110581;28;20195;-68
2023/07/29 08:18:19;;;;;;;2.53;2.10;;;22.40;99.90;;;;;;5091038;28;20231;-68
2023/07/29 08:20:53;;;;;;;1.50;1.40;;;22.50;99.90;;;;;;5103755;28;20227;-68
2023/07/29 08:23:20;;;;;;;1.70;1.60;;;22.50;99.90;;;;;;5110469;28;20180;-68
2023/07/29 08:25:53;;;;;;;1.80;1.70;;;22.60;99.90;;;;;;5111159;27;20220;-68
2023/07/29 08:28:20;;;;;;;1.88;1.48;;;22.70;99.90;;;;;;5098507;28;20192;-68
2023/07/29 08:30:47;;;;;;;1.85;1.75;;;22.80;99.90;;;;;;5110676;28;20574;-68
2023/07/29 08:33:16;;;;;;;1.70;1.60;;;22.80;99.90;;;;;;5097737;28;20661;-68
2023/07/29 08:35:43;;;;;;;1.83;1.73;;;22.90;99.90;;;;;;5101531;28;20192;-68
2023/07/29 08:38:10;;;;;;;1.67;1.58;;;22.90;98.60;;;;;;5090981;28;20216;-68
2023/07/29 08:40:42;;;;;;;1.52;1.40;;;23.00;98.30;;;;;;5103530;28;20215;-68
2023/07/29 08:43:12;;;;;;;1.45;1.38;;;23.00;98.20;;;;;;5107148;28;20204;-67
2023/07/29 08:45:40;;;;;;;1.63;1.42;;;23.10;97.70;;;;;;5103298;28;20241;-68
2023/07/29 08:48:10;;;;;;;1.23;1.23;;;23.20;97.10;;;;;;5099452;28;20188;-68
2023/07/29 08:50:39;;;;;;;1.60;1.50;;;23.30;97.10;;;;;;5100996;28;20250;-67
2023/07/29 08:53:07;;;;;;;1.42;1.30;;;23.30;96.60;;;;;;5086889;28;20226;-67
2023/07/29 08:55:34;;;;;;;1.52;1.33;;;23.40;96.20;;;;;;5099877;28;20324;-68
2023/07/29 08:58:01;;;;;;;1.20;1.20;;;23.40;95.80;;;;;;5084459;28;20220;-68
2023/07/29 09:00:29;;;;;;;2.03;1.42;;;23.50;95.80;;;;;;5087190;28;21162;-68
2023/07/29 09:02:57;;;;;;;1.33;1.33;;;23.60;95.10;;;;;;5100784;28;20200;-68
2023/07/29 09:05:24;;;;;;;1.75;1.48;;;23.60;94.10;;;;;;5102823;28;20221;-68
2023/07/29 09:07:55;;;;;;;2.60;1.50;;;23.70;93.90;;;;;;5096793;28;20228;-68
2023/07/29 09:10:23;;;;;;;1.73;1.60;;;23.70;92.70;;;;;;5100803;28;20192;-68
2023/07/29 09:12:51;;;;;;;1.85;1.60;;;23.70;92.80;;;;;;5101983;28;20189;-68
2023/07/29 09:15:28;;;;;;;1.48;1.40;;;23.80;92.70;;;;;;5099953;28;20273;-68
2023/07/29 09:17:57;;;;;;;1.50;1.40;;;23.80;92.70;;;;;;5097085;28;20210;-68
2023/07/29 09:20:28;;;;;;;1.55;1.42;;;23.90;92.50;;;;;;5103252;28;20192;-68
2023/07/29 09:23:00;;;;;;;1.30;1.20;;;23.90;92.20;;;;;;5097750;28;20200;-68
2023/07/29 09:25:29;;;;;;;1.15;1.15;;;24.00;92.40;;;;;;5102720;28;20192;-67
2023/07/29 09:28:00;;;;;;;1.48;1.38;;;24.10;92.60;;;;;;5102580;28;20670;-67
2023/07/29 09:30:28;;;;;;;1.55;1.45;;;24.20;92.40;;;;;;5102398;28;20493;-67
2023/07/29 09:32:57;;;;;;;1.65;1.55;;;24.20;91.40;;;;;;5081929;28;20227;-67
2023/07/29 09:35:24;;;;;;;1.80;1.70;;;24.30;91.30;;;;;;5107617;28;20249;-67
2023/07/29 09:37:52;;;;;;;1.75;1.52;;;24.40;90.20;;;;;;5107192;28;20194;-68
2023/07/29 09:40:21;;;;;;;1.48;1.42;;;24.40;90.20;;;;;;5091453;28;20195;-68
2023/07/29 09:42:51;;;;;;;1.40;1.30;;;24.50;89.30;;;;;;5103982;28;20556;-68
2023/07/29 09:45:25;;;;;;;1.60;1.50;;;24.50;88.30;;;;;;5081453;28;20258;-69
2023/07/29 09:47:54;;;;;;;1.70;1.60;;;24.50;86.70;;;;;;5103339;28;20196;-67
2023/07/29 09:50:24;;;;;;;1.48;1.40;;;24.60;87.00;;;;;;5086320;28;20214;-67
2023/07/29 09:52:53;;;;;;;1.45;1.38;;;24.60;86.10;;;;;;5096436;28;20644;-68
2023/07/29 09:55:24;;;;;;;1.20;1.15;;;24.70;86.70;;;;;;5102234;28;20663;-68
2023/07/29 09:57:55;;;;;;;1.10;1.10;;;24.80;87.10;;;;;;5093812;28;20586;-68
2023/07/29 10:00:24;;;;;;;1.25;1.25;;;24.80;86.60;;;;;;5084835;28;20294;-68
2023/07/29 10:02:53;;;;;;;1.60;1.50;;;24.90;86.30;;;;;;5095688;28;20708;-68
2023/07/29 10:05:23;;;;;;;1.67;1.58;;;25.00;85.50;;;;;;5102670;28;20195;-68
2023/07/29 10:07:51;;;;;;;1.60;1.50;;;25.00;83.10;;;;;;5095066;28;20231;-68
2023/07/29 10:10:18;;;;;;;1.35;1.25;;;25.00;83.50;;;;;;5100957;28;20248;-68
2023/07/29 10:12:47;;;;;;;1.52;1.42;;;25.10;83.40;;;;;;5080892;28;20215;-69
2023/07/29 10:15:15;;;;;;;1.10;1.10;;;25.10;82.90;;;;;;5097488;28;20184;-68
2023/07/29 10:17:42;;;;;;;1.35;1.27;;;25.20;82.60;;;;;;5099484;28;20700;-68
2023/07/29 10:20:11;;;;;;;1.52;1.42;;;25.30;81.60;;;;;;5081298;28;20227;-67
2023/07/29 10:22:40;;;;;;;1.60;1.50;;;25.30;80.00;;;;;;5104804;28;20207;-67
2023/07/29 10:25:11;;;;;;;1.40;1.30;;;25.40;79.50;;;;;;5085060;28;20207;-67
2023/07/29 10:27:44;;;;;;;1.88;1.40;;;25.40;79.30;;;;;;5098750;28;20655;-67
2023/07/29 10:30:14;;;;;;;1.58;1.48;;;25.40;78.70;;;;;;5092513;28;20301;-66
2023/07/29 10:32:44;;;;;;;1.42;1.33;;;25.50;78.40;;;;;;5095048;28;20195;-66
2023/07/29 10:35:12;;;;;;;1.30;1.30;;;25.50;76.80;;;;;;5092541;28;20270;-66
2023/07/29 10:37:40;;;;;;;1.25;1.25;;;25.60;77.20;;;;;;5103723;28;20192;-67
2023/07/29 10:40:09;;;;;;;1.70;1.48;;;25.60;76.40;;;;;;5106663;28;20733;-67
2023/07/29 10:42:36;;;;;;;1.67;1.58;;;25.70;75.20;;;;;;5082631;28;20205;-67
2023/07/29 10:47:59;;;;;;;1.70;1.60;;;25.70;73.80;;;;;;5167513;27;20612;-67
2023/07/29 10:50:27;;;;;;;3.15;1.52;;;25.80;73.30;;;;;;5167946;27;20604;-66
2023/07/29 10:52:57;;;;;;;2.05;1.55;;;25.90;73.80;;;;;;5165727;27;20301;-67
2023/07/29 10:55:29;;;;;;;1.33;1.23;;;25.90;73.70;;;;;;5165466;27;20183;-67
2023/07/29 10:58:13;;;;;;;2.40;1.85;;;26.00;73.30;;;;;;5169733;27;20299;-68
2023/07/29 11:00:42;;;;;;;2.03;1.83;;;26.10;72.00;;;;;;5167512;27;20475;-67
2023/07/29 11:03:12;;;;;;;1.80;1.70;;;26.10;70.00;;;;;;5161005;27;20507;-67
2023/07/29 11:05:52;;;;;;;1.83;1.73;;;26.10;70.40;;;;;;5157993;27;20196;-67
2023/07/29 11:08:27;;;;;;;2.00;1.90;;;26.20;71.20;;;;;;5170001;27;20511;-66
2023/07/29 11:11:05;;;;;;;1.90;1.80;;;26.20;71.30;;;;;;5162074;27;20276;-65
2023/07/29 11:13:34;;;;;;;4.38;2.03;;;26.20;71.20;;;;;;5164910;27;20685;-65
2023/07/29 11:16:01;;;;;;;1.63;1.52;;;26.30;71.20;;;;;;5161893;27;20179;-65
2023/07/29 11:18:32;;;;;;;1.95;1.85;;;26.30;71.50;;;;;;5166131;27;20205;-66
2023/07/29 11:20:59;;;;;;;1.92;1.83;;;26.30;71.30;;;;;;5153540;27;20190;-66
2023/07/29 11:23:31;;;;;;;1.80;1.70;;;26.40;71.00;;;;;;5159591;27;20194;-66
2023/07/29 11:25:59;;;;;;;1.75;1.65;;;26.40;70.60;;;;;;5163812;27;20206;-65
2023/07/29 11:28:27;;;;;;;1.80;1.70;;;26.40;70.80;;;;;;5154823;27;20190;-66
2023/07/29 11:30:56;;;;;;;1.60;1.50;;;26.50;70.90;;;;;;5157209;27;20182;-66
2023/07/29 11:33:25;;;;;;;1.70;1.60;;;26.50;71.00;;;;;;5163042;27;20187;-67
2023/07/29 11:35:54;;;;;;;1.58;1.50;;;26.50;70.40;;;;;;5167670;27;20670;-66
2023/07/29 11:38:22;;;;;;;1.40;1.30;;;26.50;69.80;;;;;;5159217;27;20624;-66
2023/07/29 11:41:00;;;;;;;1.40;1.30;;;26.60;69.70;;;;;;5182461;27;20586;-65
2023/07/29 11:43:27;;;;;;;1.23;1.13;;;26.60;69.70;;;;;;5164696;27;20281;-67
2023/07/29 11:45:55;;;;;;;1.80;1.70;;;26.70;69.10;;;;;;5156001;27;20401;-66
2023/07/29 11:48:28;;;;;;;5.57;1.98;;;26.80;68.10;;;;;;5164134;27;20183;-66
2023/07/29 11:50:57;;;;;;;2.60;2.40;;;26.80;66.80;;;;;;5166502;27;20190;-66
2023/07/29 11:53:28;;;;;;;2.72;2.47;;;26.90;66.60;;;;;;5164875;27;20238;-65
2023/07/29 11:55:55;;;;;;;2.40;2.20;;;26.90;66.80;;;;;;5165577;27;20197;-66
2023/07/29 11:58:22;;;;;;;2.00;1.90;;;26.90;65.90;;;;;;5147334;27;20316;-65
2023/07/29 12:00:50;;;;;;;2.10;2.00;;;26.90;66.00;;;;;;5150184;27;20724;-66
2023/07/29 12:03:18;;;;;;;2.08;1.98;;;26.90;67.10;;;;;;5148788;27;20199;-65
2023/07/29 12:05:46;;;;;;;3.47;2.10;;;26.90;67.40;;;;;;5151557;27;20194;-66
2023/07/29 12:08:14;;;;;;;1.70;1.60;;;27.00;67.70;;;;;;5148372;27;20306;-65
2023/07/29 12:10:41;;;;;;;1.60;1.50;;;27.00;67.80;;;;;;5145573;27;20188;-65
2023/07/29 12:13:09;;;;;;;1.45;1.45;;;27.00;67.40;;;;;;5148639;27;20551;-66
2023/07/29 12:15:39;;;;;;;2.45;1.50;;;27.00;67.40;;;;;;5152170;27;20258;-65
2023/07/29 12:18:07;;;;;;;1.25;1.25;;;27.00;67.80;;;;;;5137090;27;20244;-66
2023/07/29 12:20:34;;;;;;;1.60;1.50;;;27.00;67.80;;;;;;5141916;27;20198;-65
2023/07/29 12:23:02;;;;;;;1.67;1.58;;;27.00;67.30;;;;;;5149579;27;20270;-67
2023/07/29 12:25:31;;;;;;;1.75;1.65;;;27.00;67.00;;;;;;5133717;27;20225;-66
2023/07/29 12:28:03;;;;;;;1.80;1.70;;;27.00;67.20;;;;;;5143513;27;20729;-66
2023/07/29 12:30:30;;;;;;;1.38;1.35;;;27.10;67.20;;;;;;5141263;27;20191;-66
2023/07/29 12:32:58;;;;;;;1.80;1.70;;;27.10;66.70;;;;;;5147706;27;20191;-65
2023/07/29 12:35:25;;;;;;;1.80;1.40;;;27.20;66.70;;;;;;5140433;27;20247;-67
2023/07/29 12:38:01;;;;;;;3.63;1.60;;;27.20;66.70;;;;;;5149688;27;20195;-66
2023/07/29 12:40:30;;;;;;;2.15;1.95;;;27.30;66.10;;;;;;5149976;27;20262;-65
2023/07/29 12:42:57;;;;;;;1.75;1.65;;;27.30;66.00;;;;;;5145777;27;20205;-66
2023/07/29 12:45:26;;;;;;;2.13;1.92;;;27.30;65.70;;;;;;5151357;27;20657;-67
2023/07/29 12:47:54;;;;;;;1.95;1.85;;;27.30;64.60;;;;;;5147171;27;20287;-67
2023/07/29 12:50:22;;;;;;;1.80;1.70;;;27.20;64.10;;;;;;5151308;27;20685;-68
2023/07/29 12:52:49;;;;;;;1.55;1.50;;;27.20;64.00;;;;;;5148189;27;20498;-65
2023/07/29 12:55:16;;;;;;;1.50;1.40;;;27.20;64.00;;;;;;5148912;27;20202;-65
2023/07/29 12:57:45;;;;;;;1.60;1.50;;;27.20;64.10;;;;;;5148288;27;20191;-65